sensor_id;sensor_type;location;lat;lon;timestamp;P1;durP1;ratioP1;P2;durP2;ratioP2
23322;SDS011;11833;52.554;13.554;2023-11-19T01:00:27;3.65;;;3.17;;
23322;SDS011;11833;52.554;13.554;2023-11-19T01:02:53;4.95;;;2.60;;
23322;SDS011;11833;52.554;13.554;2023-11-19T01:05:19;5.55;;;3.45;;
23322;SDS011;11833;52.554;13.554;2023-11-19T01:07:48;4.13;;;3.30;;
23322;SDS011;11833;52.554;13.554;2023-11-19T01:10:15;4.53;;;3.40;;
23322;SDS011;11833;52.554;13.554;2023-11-19T01:12:41;4.68;;;3.55;;
23322;SDS011;11833;52.554;13.554;2023-11-19T01:15:07;4.80;;;3.65;;
23322;SDS011;11833;52.554;13.554;2023-11-19T01:17:33;3.53;;;3.20;;
23322;SDS011;11833;52.554;13.554;2023-11-19T01:19:59;4.55;;;3.60;;
23322;SDS011;11833;52.554;13.554;2023-11-19T01:22:25;6.05;;;3.33;;
23322;SDS011;11833;52.554;13.554;2023-11-19T01:24:51;4.88;;;3.40;;
23322;SDS011;11833;52.554;13.554;2023-11-19T01:27:17;3.88;;;3.30;;
23322;SDS011;11833;52.554;13.554;2023-11-19T01:29:43;6.80;;;3.20;;
23322;SDS011;11833;52.554;13.554;2023-11-19T01:32:08;4.72;;;3.58;;
23322;SDS011;11833;52.554;13.554;2023-11-19T01:34:34;6.35;;;3.42;;
23322;SDS011;11833;52.554;13.554;2023-11-19T01:37:01;3.83;;;3.30;;
23322;SDS011;11833;52.554;13.554;2023-11-19T01:39:26;3.38;;;3.05;;
23322;SDS011;11833;52.554;13.554;2023-11-19T01:41:52;4.70;;;3.22;;
23322;SDS011;11833;52.554;13.554;2023-11-19T01:44:19;4.85;;;3.33;;
23322;SDS011;11833;52.554;13.554;2023-11-19T01:46:45;3.65;;;3.05;;
23322;SDS011;11833;52.554;13.554;2023-11-19T01:49:15;4.32;;;3.38;;
23322;SDS011;11833;52.554;13.554;2023-11-19T01:51:42;2.80;;;2.60;;
23322;SDS011;11833;52.554;13.554;2023-11-19T01:54:09;3.05;;;2.58;;
23322;SDS011;11833;52.554;13.554;2023-11-19T01:56:35;3.70;;;2.95;;
23322;SDS011;11833;52.554;13.554;2023-11-19T01:59:05;2.88;;;2.58;;
23322;SDS011;11833;52.554;13.554;2023-11-19T02:01:32;5.63;;;3.45;;
23322;SDS011;11833;52.554;13.554;2023-11-19T02:04:02;3.90;;;3.20;;
23322;SDS011;11833;52.554;13.554;2023-11-19T02:06:29;4.18;;;3.10;;
23322;SDS011;11833;52.554;13.554;2023-11-19T02:08:57;3.53;;;3.22;;
23322;SDS011;11833;52.554;13.554;2023-11-19T02:11:23;3.78;;;2.78;;
23322;SDS011;11833;52.554;13.554;2023-11-19T02:13:54;4.40;;;3.30;;
23322;SDS011;11833;52.554;13.554;2023-11-19T02:16:22;4.72;;;3.10;;
23322;SDS011;11833;52.554;13.554;2023-11-19T02:18:48;5.03;;;2.83;;
23322;SDS011;11833;52.554;13.554;2023-11-19T02:21:14;3.30;;;2.97;;
23322;SDS011;11833;52.554;13.554;2023-11-19T02:23:40;4.78;;;3.15;;
23322;SDS011;11833;52.554;13.554;2023-11-19T02:26:13;3.28;;;2.88;;
23322;SDS011;11833;52.554;13.554;2023-11-19T02:28:49;3.45;;;2.78;;
23322;SDS011;11833;52.554;13.554;2023-11-19T02:31:15;4.72;;;3.45;;
23322;SDS011;11833;52.554;13.554;2023-11-19T02:33:41;7.38;;;3.35;;
23322;SDS011;11833;52.554;13.554;2023-11-19T02:36:07;5.82;;;3.55;;
23322;SDS011;11833;52.554;13.554;2023-11-19T02:38:34;4.05;;;3.00;;
23322;SDS011;11833;52.554;13.554;2023-11-19T02:41:04;6.45;;;3.28;;
23322;SDS011;11833;52.554;13.554;2023-11-19T02:43:34;7.07;;;3.60;;
23322;SDS011;11833;52.554;13.554;2023-11-19T02:46:02;3.25;;;2.95;;
23322;SDS011;11833;52.554;13.554;2023-11-19T02:48:32;3.72;;;3.30;;
23322;SDS011;11833;52.554;13.554;2023-11-19T02:51:01;4.63;;;2.80;;
23322;SDS011;11833;52.554;13.554;2023-11-19T02:53:28;5.45;;;3.25;;
23322;SDS011;11833;52.554;13.554;2023-11-19T02:55:55;5.28;;;3.35;;
23322;SDS011;11833;52.554;13.554;2023-11-19T02:58:31;5.65;;;3.58;;
23322;SDS011;11833;52.554;13.554;2023-11-19T03:00:57;5.35;;;3.22;;
23322;SDS011;11833;52.554;13.554;2023-11-19T03:03:24;3.38;;;2.88;;
23322;SDS011;11833;52.554;13.554;2023-11-19T03:05:56;3.88;;;2.97;;
23322;SDS011;11833;52.554;13.554;2023-11-19T03:08:22;7.55;;;3.47;;
23322;SDS011;11833;52.554;13.554;2023-11-19T03:10:48;4.25;;;2.80;;
23322;SDS011;11833;52.554;13.554;2023-11-19T03:13:14;5.18;;;3.28;;
23322;SDS011;11833;52.554;13.554;2023-11-19T03:15:40;3.10;;;2.80;;
23322;SDS011;11833;52.554;13.554;2023-11-19T03:18:07;5.15;;;3.90;;
23322;SDS011;11833;52.554;13.554;2023-11-19T03:20:33;2.63;;;2.42;;
23322;SDS011;11833;52.554;13.554;2023-11-19T03:22:58;2.55;;;2.33;;
23322;SDS011;11833;52.554;13.554;2023-11-19T03:25:26;2.67;;;2.42;;
23322;SDS011;11833;52.554;13.554;2023-11-19T03:27:58;5.03;;;3.38;;
23322;SDS011;11833;52.554;13.554;2023-11-19T03:30:26;3.80;;;2.38;;
23322;SDS011;11833;52.554;13.554;2023-11-19T03:32:53;5.40;;;3.15;;
23322;SDS011;11833;52.554;13.554;2023-11-19T03:35:22;3.67;;;2.80;;
23322;SDS011;11833;52.554;13.554;2023-11-19T03:37:49;3.50;;;2.80;;
23322;SDS011;11833;52.554;13.554;2023-11-19T03:40:16;3.30;;;2.67;;
23322;SDS011;11833;52.554;13.554;2023-11-19T03:42:43;3.47;;;2.53;;
23322;SDS011;11833;52.554;13.554;2023-11-19T03:45:10;2.47;;;2.25;;
23322;SDS011;11833;52.554;13.554;2023-11-19T03:47:37;3.60;;;2.72;;
23322;SDS011;11833;52.554;13.554;2023-11-19T03:50:03;2.95;;;2.30;;
23322;SDS011;11833;52.554;13.554;2023-11-19T03:52:30;4.07;;;2.10;;
23322;SDS011;11833;52.554;13.554;2023-11-19T03:54:56;2.25;;;2.05;;
23322;SDS011;11833;52.554;13.554;2023-11-19T03:57:22;6.25;;;2.10;;
23322;SDS011;11833;52.554;13.554;2023-11-19T03:59:48;4.53;;;2.58;;
23322;SDS011;11833;52.554;13.554;2023-11-19T04:02:14;2.90;;;2.60;;
23322;SDS011;11833;52.554;13.554;2023-11-19T04:04:41;3.20;;;2.85;;
23322;SDS011;11833;52.554;13.554;2023-11-19T04:07:07;3.00;;;2.70;;
23322;SDS011;11833;52.554;13.554;2023-11-19T04:09:33;3.03;;;2.38;;
23322;SDS011;11833;52.554;13.554;2023-11-19T04:11:59;2.80;;;2.35;;
23322;SDS011;11833;52.554;13.554;2023-11-19T04:14:25;4.90;;;3.58;;
23322;SDS011;11833;52.554;13.554;2023-11-19T04:16:51;3.28;;;2.88;;
23322;SDS011;11833;52.554;13.554;2023-11-19T04:19:18;2.85;;;2.60;;
23322;SDS011;11833;52.554;13.554;2023-11-19T04:21:44;3.58;;;2.67;;
23322;SDS011;11833;52.554;13.554;2023-11-19T04:24:11;4.50;;;3.58;;
23322;SDS011;11833;52.554;13.554;2023-11-19T04:26:44;3.88;;;2.60;;
23322;SDS011;11833;52.554;13.554;2023-11-19T04:29:16;4.57;;;3.15;;
23322;SDS011;11833;52.554;13.554;2023-11-19T04:31:42;3.25;;;2.95;;
23322;SDS011;11833;52.554;13.554;2023-11-19T04:34:12;3.03;;;2.83;;
23322;SDS011;11833;52.554;13.554;2023-11-19T04:36:38;4.78;;;2.75;;
23322;SDS011;11833;52.554;13.554;2023-11-19T04:39:04;2.38;;;2.15;;
23322;SDS011;11833;52.554;13.554;2023-11-19T04:41:47;4.75;;;3.22;;
23322;SDS011;11833;52.554;13.554;2023-11-19T04:44:19;3.72;;;3.17;;
23322;SDS011;11833;52.554;13.554;2023-11-19T04:46:45;4.65;;;3.67;;
23322;SDS011;11833;52.554;13.554;2023-11-19T04:49:12;7.70;;;3.75;;
23322;SDS011;11833;52.554;13.554;2023-11-19T04:51:44;3.47;;;3.17;;
23322;SDS011;11833;52.554;13.554;2023-11-19T04:54:13;3.88;;;3.10;;
23322;SDS011;11833;52.554;13.554;2023-11-19T04:56:39;2.90;;;2.63;;
23322;SDS011;11833;52.554;13.554;2023-11-19T04:59:05;2.83;;;2.63;;
23322;SDS011;11833;52.554;13.554;2023-11-19T05:01:32;4.68;;;3.58;;
23322;SDS011;11833;52.554;13.554;2023-11-19T05:03:58;3.97;;;3.20;;
23322;SDS011;11833;52.554;13.554;2023-11-19T05:06:28;4.20;;;2.70;;
23322;SDS011;11833;52.554;13.554;2023-11-19T05:08:55;3.38;;;2.70;;
23322;SDS011;11833;52.554;13.554;2023-11-19T05:11:21;3.78;;;3.25;;
23322;SDS011;11833;52.554;13.554;2023-11-19T05:13:47;4.75;;;3.42;;
23322;SDS011;11833;52.554;13.554;2023-11-19T05:16:13;3.75;;;3.33;;
23322;SDS011;11833;52.554;13.554;2023-11-19T05:18:40;3.38;;;2.90;;
23322;SDS011;11833;52.554;13.554;2023-11-19T05:21:06;3.70;;;2.20;;
23322;SDS011;11833;52.554;13.554;2023-11-19T05:23:32;4.05;;;3.65;;
23322;SDS011;11833;52.554;13.554;2023-11-19T05:25:59;3.63;;;3.08;;
23322;SDS011;11833;52.554;13.554;2023-11-19T05:28:26;5.15;;;3.10;;
23322;SDS011;11833;52.554;13.554;2023-11-19T05:30:52;5.95;;;4.22;;
23322;SDS011;11833;52.554;13.554;2023-11-19T05:33:17;6.43;;;3.65;;
23322;SDS011;11833;52.554;13.554;2023-11-19T05:35:43;3.88;;;3.38;;
23322;SDS011;11833;52.554;13.554;2023-11-19T05:38:09;4.35;;;3.13;;
23322;SDS011;11833;52.554;13.554;2023-11-19T05:40:35;3.15;;;2.40;;
23322;SDS011;11833;52.554;13.554;2023-11-19T05:43:01;3.13;;;2.83;;
23322;SDS011;11833;52.554;13.554;2023-11-19T05:45:27;5.30;;;3.60;;
23322;SDS011;11833;52.554;13.554;2023-11-19T05:47:52;4.38;;;2.70;;
23322;SDS011;11833;52.554;13.554;2023-11-19T05:50:18;3.78;;;2.63;;
23322;SDS011;11833;52.554;13.554;2023-11-19T05:52:44;3.17;;;2.70;;
23322;SDS011;11833;52.554;13.554;2023-11-19T05:55:11;7.32;;;2.92;;
23322;SDS011;11833;52.554;13.554;2023-11-19T05:57:37;3.78;;;2.85;;
23322;SDS011;11833;52.554;13.554;2023-11-19T06:00:05;3.28;;;2.78;;
23322;SDS011;11833;52.554;13.554;2023-11-19T06:02:33;4.32;;;3.20;;
23322;SDS011;11833;52.554;13.554;2023-11-19T06:04:59;3.42;;;3.13;;
23322;SDS011;11833;52.554;13.554;2023-11-19T06:07:26;3.72;;;2.83;;
23322;SDS011;11833;52.554;13.554;2023-11-19T06:09:52;2.80;;;2.45;;
23322;SDS011;11833;52.554;13.554;2023-11-19T06:12:18;3.47;;;2.92;;
23322;SDS011;11833;52.554;13.554;2023-11-19T06:14:44;2.33;;;2.00;;
23322;SDS011;11833;52.554;13.554;2023-11-19T06:17:10;3.33;;;2.60;;
23322;SDS011;11833;52.554;13.554;2023-11-19T06:19:36;2.80;;;2.33;;
23322;SDS011;11833;52.554;13.554;2023-11-19T06:22:05;3.58;;;2.03;;
23322;SDS011;11833;52.554;13.554;2023-11-19T06:24:30;2.33;;;2.13;;
23322;SDS011;11833;52.554;13.554;2023-11-19T06:26:56;2.60;;;2.40;;
23322;SDS011;11833;52.554;13.554;2023-11-19T06:29:22;2.50;;;2.03;;
23322;SDS011;11833;52.554;13.554;2023-11-19T06:31:47;2.08;;;1.85;;
23322;SDS011;11833;52.554;13.554;2023-11-19T06:34:14;4.45;;;2.67;;
23322;SDS011;11833;52.554;13.554;2023-11-19T06:36:40;2.10;;;1.83;;
23322;SDS011;11833;52.554;13.554;2023-11-19T06:39:08;3.05;;;1.80;;
23322;SDS011;11833;52.554;13.554;2023-11-19T06:41:35;2.30;;;2.10;;
23322;SDS011;11833;52.554;13.554;2023-11-19T06:44:04;2.60;;;2.40;;
23322;SDS011;11833;52.554;13.554;2023-11-19T06:46:30;2.35;;;2.00;;
23322;SDS011;11833;52.554;13.554;2023-11-19T06:48:56;2.47;;;2.05;;
23322;SDS011;11833;52.554;13.554;2023-11-19T06:51:22;2.15;;;1.77;;
23322;SDS011;11833;52.554;13.554;2023-11-19T06:53:49;2.05;;;1.65;;
23322;SDS011;11833;52.554;13.554;2023-11-19T06:56:22;2.58;;;1.98;;
23322;SDS011;11833;52.554;13.554;2023-11-19T06:58:49;2.55;;;2.03;;
23322;SDS011;11833;52.554;13.554;2023-11-19T07:01:16;1.83;;;1.60;;
23322;SDS011;11833;52.554;13.554;2023-11-19T07:03:44;2.53;;;1.77;;
23322;SDS011;11833;52.554;13.554;2023-11-19T07:06:11;2.35;;;1.70;;
23322;SDS011;11833;52.554;13.554;2023-11-19T07:08:38;1.75;;;1.48;;
23322;SDS011;11833;52.554;13.554;2023-11-19T07:11:09;1.55;;;1.38;;
23322;SDS011;11833;52.554;13.554;2023-11-19T07:13:36;2.35;;;1.98;;
23322;SDS011;11833;52.554;13.554;2023-11-19T07:16:02;2.13;;;1.38;;
23322;SDS011;11833;52.554;13.554;2023-11-19T07:18:29;2.05;;;1.85;;
23322;SDS011;11833;52.554;13.554;2023-11-19T07:20:55;2.00;;;1.80;;
23322;SDS011;11833;52.554;13.554;2023-11-19T07:23:20;2.30;;;1.73;;
23322;SDS011;11833;52.554;13.554;2023-11-19T07:25:46;2.75;;;1.40;;
23322;SDS011;11833;52.554;13.554;2023-11-19T07:28:13;1.70;;;1.60;;
23322;SDS011;11833;52.554;13.554;2023-11-19T07:30:39;2.17;;;1.77;;
23322;SDS011;11833;52.554;13.554;2023-11-19T07:33:05;1.70;;;1.60;;
23322;SDS011;11833;52.554;13.554;2023-11-19T07:35:31;2.33;;;1.85;;
23322;SDS011;11833;52.554;13.554;2023-11-19T07:37:57;1.85;;;1.75;;
23322;SDS011;11833;52.554;13.554;2023-11-19T07:40:23;1.40;;;1.30;;
23322;SDS011;11833;52.554;13.554;2023-11-19T07:42:49;2.45;;;1.92;;
23322;SDS011;11833;52.554;13.554;2023-11-19T07:45:16;1.55;;;1.45;;
23322;SDS011;11833;52.554;13.554;2023-11-19T07:47:43;1.63;;;1.52;;
23322;SDS011;11833;52.554;13.554;2023-11-19T07:50:11;2.00;;;1.77;;
23322;SDS011;11833;52.554;13.554;2023-11-19T07:52:41;1.73;;;1.63;;
23322;SDS011;11833;52.554;13.554;2023-11-19T07:55:07;2.45;;;1.65;;
23322;SDS011;11833;52.554;13.554;2023-11-19T07:57:33;1.83;;;1.73;;
23322;SDS011;11833;52.554;13.554;2023-11-19T07:59:59;2.58;;;1.35;;
23322;SDS011;11833;52.554;13.554;2023-11-19T08:02:26;2.40;;;1.77;;
23322;SDS011;11833;52.554;13.554;2023-11-19T08:04:52;2.85;;;1.88;;
23322;SDS011;11833;52.554;13.554;2023-11-19T08:07:20;2.42;;;2.00;;
23322;SDS011;11833;52.554;13.554;2023-11-19T08:09:47;2.00;;;1.90;;
23322;SDS011;11833;52.554;13.554;2023-11-19T08:12:13;2.30;;;2.10;;
23322;SDS011;11833;52.554;13.554;2023-11-19T08:14:42;1.88;;;1.73;;
23322;SDS011;11833;52.554;13.554;2023-11-19T08:17:09;2.50;;;2.30;;
23322;SDS011;11833;52.554;13.554;2023-11-19T08:19:35;1.83;;;1.73;;
23322;SDS011;11833;52.554;13.554;2023-11-19T08:22:01;1.88;;;1.67;;
23322;SDS011;11833;52.554;13.554;2023-11-19T08:24:27;1.88;;;1.77;;
23322;SDS011;11833;52.554;13.554;2023-11-19T08:26:53;1.85;;;1.65;;
23322;SDS011;11833;52.554;13.554;2023-11-19T08:29:19;2.50;;;1.63;;
23322;SDS011;11833;52.554;13.554;2023-11-19T08:31:44;2.42;;;1.63;;
23322;SDS011;11833;52.554;13.554;2023-11-19T08:34:11;2.05;;;1.88;;
23322;SDS011;11833;52.554;13.554;2023-11-19T08:36:36;1.95;;;1.85;;
23322;SDS011;11833;52.554;13.554;2023-11-19T08:39:03;1.55;;;1.40;;
23322;SDS011;11833;52.554;13.554;2023-11-19T08:41:28;2.72;;;2.20;;
23322;SDS011;11833;52.554;13.554;2023-11-19T08:43:54;1.92;;;1.83;;
23322;SDS011;11833;52.554;13.554;2023-11-19T08:46:20;2.13;;;2.00;;
23322;SDS011;11833;52.554;13.554;2023-11-19T08:48:46;6.38;;;2.60;;
23322;SDS011;11833;52.554;13.554;2023-11-19T08:51:12;3.00;;;2.70;;
23322;SDS011;11833;52.554;13.554;2023-11-19T08:53:37;2.72;;;2.53;;
23322;SDS011;11833;52.554;13.554;2023-11-19T08:56:03;2.63;;;2.38;;
23322;SDS011;11833;52.554;13.554;2023-11-19T08:58:30;2.42;;;2.22;;
23322;SDS011;11833;52.554;13.554;2023-11-19T09:00:56;2.90;;;2.58;;
23322;SDS011;11833;52.554;13.554;2023-11-19T09:03:22;2.50;;;2.25;;
23322;SDS011;11833;52.554;13.554;2023-11-19T09:05:49;2.92;;;2.17;;
23322;SDS011;11833;52.554;13.554;2023-11-19T09:08:14;3.15;;;2.80;;
23322;SDS011;11833;52.554;13.554;2023-11-19T09:10:40;7.03;;;3.00;;
23322;SDS011;11833;52.554;13.554;2023-11-19T09:13:06;5.65;;;1.70;;
23322;SDS011;11833;52.554;13.554;2023-11-19T09:15:32;4.00;;;3.22;;
23322;SDS011;11833;52.554;13.554;2023-11-19T09:17:58;3.55;;;2.20;;
23322;SDS011;11833;52.554;13.554;2023-11-19T09:20:24;3.60;;;1.83;;
23322;SDS011;11833;52.554;13.554;2023-11-19T09:22:49;3.05;;;2.75;;
23322;SDS011;11833;52.554;13.554;2023-11-19T09:25:16;2.13;;;1.95;;
23322;SDS011;11833;52.554;13.554;2023-11-19T09:27:43;3.67;;;2.60;;
23322;SDS011;11833;52.554;13.554;2023-11-19T09:30:09;2.58;;;2.38;;
23322;SDS011;11833;52.554;13.554;2023-11-19T09:32:35;2.70;;;2.50;;
23322;SDS011;11833;52.554;13.554;2023-11-19T09:35:02;3.40;;;2.55;;
23322;SDS011;11833;52.554;13.554;2023-11-19T09:37:29;4.03;;;2.90;;
23322;SDS011;11833;52.554;13.554;2023-11-19T09:39:55;2.60;;;2.28;;
23322;SDS011;11833;52.554;13.554;2023-11-19T09:42:21;4.15;;;1.92;;
23322;SDS011;11833;52.554;13.554;2023-11-19T09:44:48;4.65;;;1.42;;
23322;SDS011;11833;52.554;13.554;2023-11-19T09:47:14;4.65;;;2.72;;
23322;SDS011;11833;52.554;13.554;2023-11-19T09:49:43;4.13;;;2.22;;
23322;SDS011;11833;52.554;13.554;2023-11-19T09:52:09;2.65;;;2.10;;
23322;SDS011;11833;52.554;13.554;2023-11-19T09:54:35;2.15;;;1.80;;
23322;SDS011;11833;52.554;13.554;2023-11-19T09:57:01;3.15;;;2.45;;
23322;SDS011;11833;52.554;13.554;2023-11-19T09:59:29;4.25;;;1.73;;
23322;SDS011;11833;52.554;13.554;2023-11-19T10:01:56;5.25;;;2.40;;
23322;SDS011;11833;52.554;13.554;2023-11-19T10:04:22;4.70;;;1.75;;
23322;SDS011;11833;52.554;13.554;2023-11-19T10:06:49;2.30;;;2.08;;
23322;SDS011;11833;52.554;13.554;2023-11-19T10:09:17;3.38;;;2.20;;
23322;SDS011;11833;52.554;13.554;2023-11-19T10:11:42;3.40;;;2.25;;
23322;SDS011;11833;52.554;13.554;2023-11-19T10:14:09;1.88;;;1.73;;
23322;SDS011;11833;52.554;13.554;2023-11-19T10:16:35;2.13;;;1.92;;
23322;SDS011;11833;52.554;13.554;2023-11-19T10:19:00;2.85;;;2.17;;
23322;SDS011;11833;52.554;13.554;2023-11-19T10:21:27;3.17;;;1.33;;
23322;SDS011;11833;52.554;13.554;2023-11-19T10:23:57;4.63;;;1.55;;
23322;SDS011;11833;52.554;13.554;2023-11-19T10:26:25;1.30;;;1.20;;
23322;SDS011;11833;52.554;13.554;2023-11-19T10:28:52;4.55;;;2.00;;
23322;SDS011;11833;52.554;13.554;2023-11-19T10:31:18;4.30;;;1.90;;
23322;SDS011;11833;52.554;13.554;2023-11-19T10:33:51;4.85;;;1.55;;
23322;SDS011;11833;52.554;13.554;2023-11-19T10:36:18;4.18;;;1.75;;
23322;SDS011;11833;52.554;13.554;2023-11-19T10:38:54;2.20;;;1.27;;
23322;SDS011;11833;52.554;13.554;2023-11-19T10:43:54;3.28;;;1.65;;
23322;SDS011;11833;52.554;13.554;2023-11-19T10:46:19;4.47;;;1.65;;
23322;SDS011;11833;52.554;13.554;2023-11-19T10:48:48;4.85;;;1.65;;
23322;SDS011;11833;52.554;13.554;2023-11-19T10:51:16;1.35;;;1.08;;
23322;SDS011;11833;52.554;13.554;2023-11-19T10:53:49;3.92;;;1.48;;
23322;SDS011;11833;52.554;13.554;2023-11-19T10:56:19;3.40;;;1.48;;
23322;SDS011;11833;52.554;13.554;2023-11-19T10:58:50;7.13;;;1.30;;
23322;SDS011;11833;52.554;13.554;2023-11-19T11:01:20;7.13;;;1.65;;
23322;SDS011;11833;52.554;13.554;2023-11-19T11:03:55;4.45;;;1.55;;
23322;SDS011;11833;52.554;13.554;2023-11-19T11:06:26;1.98;;;1.23;;
23322;SDS011;11833;52.554;13.554;2023-11-19T11:08:52;7.05;;;2.03;;
23322;SDS011;11833;52.554;13.554;2023-11-19T11:11:19;4.75;;;1.33;;
23322;SDS011;11833;52.554;13.554;2023-11-19T11:13:48;7.15;;;1.60;;
23322;SDS011;11833;52.554;13.554;2023-11-19T11:16:18;3.90;;;1.15;;
23322;SDS011;11833;52.554;13.554;2023-11-19T11:18:45;6.53;;;1.90;;
23322;SDS011;11833;52.554;13.554;2023-11-19T11:21:17;4.22;;;1.50;;
23322;SDS011;11833;52.554;13.554;2023-11-19T11:24:06;4.20;;;1.63;;
23322;SDS011;11833;52.554;13.554;2023-11-19T11:26:45;5.35;;;1.25;;
23322;SDS011;11833;52.554;13.554;2023-11-19T11:37:37;4.13;;;1.20;;
23322;SDS011;11833;52.554;13.554;2023-11-19T11:40:15;3.90;;;1.02;;
23322;SDS011;11833;52.554;13.554;2023-11-19T11:42:43;5.57;;;1.55;;
23322;SDS011;11833;52.554;13.554;2023-11-19T11:45:13;6.03;;;2.08;;
23322;SDS011;11833;52.554;13.554;2023-11-19T11:50:10;3.65;;;1.17;;
23322;SDS011;11833;52.554;13.554;2023-11-19T11:55:34;13.60;;;1.60;;
23322;SDS011;11833;52.554;13.554;2023-11-19T11:58:02;7.80;;;1.65;;
23322;SDS011;11833;52.554;13.554;2023-11-19T12:00:30;5.35;;;1.88;;
23322;SDS011;11833;52.554;13.554;2023-11-19T12:03:01;6.88;;;1.55;;
23322;SDS011;11833;52.554;13.554;2023-11-19T12:05:30;9.52;;;1.70;;
23322;SDS011;11833;52.554;13.554;2023-11-19T12:10:31;5.57;;;1.67;;
23322;SDS011;11833;52.554;13.554;2023-11-19T12:13:03;8.48;;;2.28;;
23322;SDS011;11833;52.554;13.554;2023-11-19T12:15:32;8.00;;;1.95;;
23322;SDS011;11833;52.554;13.554;2023-11-19T12:17:58;11.32;;;2.17;;
23322;SDS011;11833;52.554;13.554;2023-11-19T12:20:25;6.97;;;1.88;;
23322;SDS011;11833;52.554;13.554;2023-11-19T12:22:52;7.10;;;1.67;;
23322;SDS011;11833;52.554;13.554;2023-11-19T12:25:19;8.35;;;1.98;;
23322;SDS011;11833;52.554;13.554;2023-11-19T12:27:46;5.78;;;1.38;;
23322;SDS011;11833;52.554;13.554;2023-11-19T12:30:17;11.38;;;2.70;;
23322;SDS011;11833;52.554;13.554;2023-11-19T12:32:49;16.27;;;2.58;;
23322;SDS011;11833;52.554;13.554;2023-11-19T12:35:15;13.90;;;4.03;;
23322;SDS011;11833;52.554;13.554;2023-11-19T12:37:47;10.50;;;1.80;;
23322;SDS011;11833;52.554;13.554;2023-11-19T12:40:16;23.00;;;2.22;;
23322;SDS011;11833;52.554;13.554;2023-11-19T12:42:52;16.77;;;2.72;;
23322;SDS011;11833;52.554;13.554;2023-11-19T12:45:20;8.25;;;1.92;;
23322;SDS011;11833;52.554;13.554;2023-11-19T12:47:48;16.95;;;3.05;;
23322;SDS011;11833;52.554;13.554;2023-11-19T12:50:17;13.43;;;3.03;;
23322;SDS011;11833;52.554;13.554;2023-11-19T12:52:54;9.45;;;2.58;;
23322;SDS011;11833;52.554;13.554;2023-11-19T12:55:26;12.43;;;2.97;;
23322;SDS011;11833;52.554;13.554;2023-11-19T12:57:55;11.07;;;2.60;;
23322;SDS011;11833;52.554;13.554;2023-11-19T13:00:23;13.65;;;2.97;;
23322;SDS011;11833;52.554;13.554;2023-11-19T13:02:51;12.32;;;2.78;;
23322;SDS011;11833;52.554;13.554;2023-11-19T13:05:26;12.88;;;3.65;;
23322;SDS011;11833;52.554;13.554;2023-11-19T13:10:25;10.98;;;2.85;;
23322;SDS011;11833;52.554;13.554;2023-11-19T13:13:02;12.73;;;2.88;;
23322;SDS011;11833;52.554;13.554;2023-11-19T13:15:36;7.93;;;2.40;;
23322;SDS011;11833;52.554;13.554;2023-11-19T13:18:02;7.68;;;2.25;;
23322;SDS011;11833;52.554;13.554;2023-11-19T13:20:28;11.15;;;2.15;;
23322;SDS011;11833;52.554;13.554;2023-11-19T13:22:58;8.95;;;2.75;;
23322;SDS011;11833;52.554;13.554;2023-11-19T13:25:29;9.38;;;2.58;;
23322;SDS011;11833;52.554;13.554;2023-11-19T13:27:56;12.85;;;2.45;;
23322;SDS011;11833;52.554;13.554;2023-11-19T13:30:22;8.07;;;2.20;;
23322;SDS011;11833;52.554;13.554;2023-11-19T13:32:49;8.27;;;2.08;;
23322;SDS011;11833;52.554;13.554;2023-11-19T13:35:17;13.00;;;2.38;;
23322;SDS011;11833;52.554;13.554;2023-11-19T13:37:43;7.93;;;2.15;;
23322;SDS011;11833;52.554;13.554;2023-11-19T13:40:10;10.13;;;2.47;;
23322;SDS011;11833;52.554;13.554;2023-11-19T13:42:42;14.10;;;3.15;;
23322;SDS011;11833;52.554;13.554;2023-11-19T13:45:09;14.63;;;2.50;;
23322;SDS011;11833;52.554;13.554;2023-11-19T13:47:37;10.60;;;2.28;;
23322;SDS011;11833;52.554;13.554;2023-11-19T13:50:09;12.57;;;2.10;;
23322;SDS011;11833;52.554;13.554;2023-11-19T13:52:39;11.63;;;2.38;;
23322;SDS011;11833;52.554;13.554;2023-11-19T13:55:08;9.65;;;2.40;;
23322;SDS011;11833;52.554;13.554;2023-11-19T13:57:35;15.13;;;2.63;;
23322;SDS011;11833;52.554;13.554;2023-11-19T14:00:05;12.65;;;3.10;;
23322;SDS011;11833;52.554;13.554;2023-11-19T14:02:44;7.15;;;2.67;;
23322;SDS011;11833;52.554;13.554;2023-11-19T14:05:12;12.40;;;2.78;;
23322;SDS011;11833;52.554;13.554;2023-11-19T14:07:39;13.35;;;2.90;;
23322;SDS011;11833;52.554;13.554;2023-11-19T14:10:05;16.08;;;3.53;;
23322;SDS011;11833;52.554;13.554;2023-11-19T14:12:34;11.05;;;2.38;;
23322;SDS011;11833;52.554;13.554;2023-11-19T14:15:03;14.52;;;3.13;;
23322;SDS011;11833;52.554;13.554;2023-11-19T14:17:42;12.32;;;2.60;;
23322;SDS011;11833;52.554;13.554;2023-11-19T14:20:09;17.02;;;4.32;;
23322;SDS011;11833;52.554;13.554;2023-11-19T14:22:40;16.75;;;3.40;;
23322;SDS011;11833;52.554;13.554;2023-11-19T14:25:07;15.88;;;3.15;;
23322;SDS011;11833;52.554;13.554;2023-11-19T14:27:39;13.02;;;2.75;;
23322;SDS011;11833;52.554;13.554;2023-11-19T14:30:06;19.00;;;3.58;;
23322;SDS011;11833;52.554;13.554;2023-11-19T14:32:38;15.27;;;3.30;;
23322;SDS011;11833;52.554;13.554;2023-11-19T14:35:07;15.40;;;4.30;;
23322;SDS011;11833;52.554;13.554;2023-11-19T14:37:33;14.60;;;3.40;;
23322;SDS011;11833;52.554;13.554;2023-11-19T14:39:59;11.27;;;3.15;;
23322;SDS011;11833;52.554;13.554;2023-11-19T14:42:26;16.55;;;3.95;;
23322;SDS011;11833;52.554;13.554;2023-11-19T14:44:52;12.52;;;2.88;;
23322;SDS011;11833;52.554;13.554;2023-11-19T14:47:19;20.88;;;3.47;;
23322;SDS011;11833;52.554;13.554;2023-11-19T14:49:45;14.95;;;2.53;;
23322;SDS011;11833;52.554;13.554;2023-11-19T14:52:11;11.18;;;2.65;;
23322;SDS011;11833;52.554;13.554;2023-11-19T14:54:37;14.40;;;4.00;;
23322;SDS011;11833;52.554;13.554;2023-11-19T14:57:06;16.15;;;3.40;;
23322;SDS011;11833;52.554;13.554;2023-11-19T14:59:33;18.20;;;4.82;;
23322;SDS011;11833;52.554;13.554;2023-11-19T15:01:59;13.95;;;4.72;;
23322;SDS011;11833;52.554;13.554;2023-11-19T15:04:28;16.83;;;4.57;;
23322;SDS011;11833;52.554;13.554;2023-11-19T15:06:58;23.50;;;2.72;;
23322;SDS011;11833;52.554;13.554;2023-11-19T15:09:24;14.07;;;2.70;;
23322;SDS011;11833;52.554;13.554;2023-11-19T15:11:53;13.50;;;2.92;;
23322;SDS011;11833;52.554;13.554;2023-11-19T15:14:19;18.67;;;3.67;;
23322;SDS011;11833;52.554;13.554;2023-11-19T15:16:45;18.77;;;2.83;;
23322;SDS011;11833;52.554;13.554;2023-11-19T15:19:12;18.70;;;3.05;;
23322;SDS011;11833;52.554;13.554;2023-11-19T15:21:39;14.80;;;3.35;;
23322;SDS011;11833;52.554;13.554;2023-11-19T15:24:07;11.25;;;3.15;;
23322;SDS011;11833;52.554;13.554;2023-11-19T15:26:36;20.92;;;3.47;;
23322;SDS011;11833;52.554;13.554;2023-11-19T15:29:03;10.02;;;3.15;;
23322;SDS011;11833;52.554;13.554;2023-11-19T15:31:30;23.13;;;3.92;;
23322;SDS011;11833;52.554;13.554;2023-11-19T15:33:56;11.05;;;2.40;;
23322;SDS011;11833;52.554;13.554;2023-11-19T15:36:22;16.30;;;2.92;;
23322;SDS011;11833;52.554;13.554;2023-11-19T15:38:48;9.63;;;1.77;;
23322;SDS011;11833;52.554;13.554;2023-11-19T15:41:14;13.82;;;3.33;;
23322;SDS011;11833;52.554;13.554;2023-11-19T15:43:40;10.70;;;2.80;;
23322;SDS011;11833;52.554;13.554;2023-11-19T15:46:07;14.45;;;3.00;;
23322;SDS011;11833;52.554;13.554;2023-11-19T15:48:36;16.75;;;3.22;;
23322;SDS011;11833;52.554;13.554;2023-11-19T15:51:02;13.20;;;2.83;;
23322;SDS011;11833;52.554;13.554;2023-11-19T15:53:28;19.27;;;3.40;;